sensor_id;sensor_type;location;lat;lon;timestamp;temperature;humidity
42099;DHT22;27758;55.900;8.516;2022-08-03T00:01:42;18.40;99.90
42099;DHT22;27758;55.900;8.516;2022-08-03T00:04:09;18.50;99.90
42099;DHT22;27758;55.900;8.516;2022-08-03T00:06:36;18.50;99.90
42099;DHT22;27758;55.900;8.516;2022-08-03T00:09:05;18.50;99.90
42099;DHT22;27758;55.900;8.516;2022-08-03T00:11:32;18.50;99.90
42099;DHT22;27758;55.900;8.516;2022-08-03T00:13:58;18.50;99.90
42099;DHT22;27758;55.900;8.516;2022-08-03T00:16:24;18.50;99.90
42099;DHT22;27758;55.900;8.516;2022-08-03T00:18:51;18.40;99.90
42099;DHT22;27758;55.900;8.516;2022-08-03T00:21:18;18.50;99.90
42099;DHT22;27758;55.900;8.516;2022-08-03T00:23:44;18.50;99.90
42099;DHT22;27758;55.900;8.516;2022-08-03T00:26:10;18.50;99.90
42099;DHT22;27758;55.900;8.516;2022-08-03T00:28:36;18.50;99.90
42099;DHT22;27758;55.900;8.516;2022-08-03T00:31:02;18.50;99.90
42099;DHT22;27758;55.900;8.516;2022-08-03T00:33:27;18.50;99.90
42099;DHT22;27758;55.900;8.516;2022-08-03T00:35:53;18.40;99.90
42099;DHT22;27758;55.900;8.516;2022-08-03T00:38:19;18.50;99.90
42099;DHT22;27758;55.900;8.516;2022-08-03T00:40:46;18.40;99.90
42099;DHT22;27758;55.900;8.516;2022-08-03T00:43:12;18.40;99.90
42099;DHT22;27758;55.900;8.516;2022-08-03T00:45:39;18.40;99.90
42099;DHT22;27758;55.900;8.516;2022-08-03T00:48:07;18.40;99.90
42099;DHT22;27758;55.900;8.516;2022-08-03T00:50:35;18.40;99.90
42099;DHT22;27758;55.900;8.516;2022-08-03T00:53:04;18.50;99.90
42099;DHT22;27758;55.900;8.516;2022-08-03T00:55:31;18.40;99.90
42099;DHT22;27758;55.900;8.516;2022-08-03T00:57:57;18.40;99.90
42099;DHT22;27758;55.900;8.516;2022-08-03T01:00:25;18.40;99.90
42099;DHT22;27758;55.900;8.516;2022-08-03T01:02:52;18.40;99.90
42099;DHT22;27758;55.900;8.516;2022-08-03T01:05:19;18.40;99.90
42099;DHT22;27758;55.900;8.516;2022-08-03T01:10:25;18.40;99.90
42099;DHT22;27758;55.900;8.516;2022-08-03T01:13:24;18.40;99.90
42099;DHT22;27758;55.900;8.516;2022-08-03T01:16:02;18.40;99.90
42099;DHT22;27758;55.900;8.516;2022-08-03T01:21:39;18.40;99.90
42099;DHT22;27758;55.900;8.516;2022-08-03T01:29:38;18.40;99.90
42099;DHT22;27758;55.900;8.516;2022-08-03T01:32:11;18.40;99.90
42099;DHT22;27758;55.900;8.516;2022-08-03T01:34:54;18.30;99.90
42099;DHT22;27758;55.900;8.516;2022-08-03T01:37:31;18.40;99.90
42099;DHT22;27758;55.900;8.516;2022-08-03T01:40:01;18.40;99.90
42099;DHT22;27758;55.900;8.516;2022-08-03T01:42:29;18.40;99.90
42099;DHT22;27758;55.900;8.516;2022-08-03T01:44:58;18.40;99.90
42099;DHT22;27758;55.900;8.516;2022-08-03T01:47:25;18.40;99.90
42099;DHT22;27758;55.900;8.516;2022-08-03T01:49:52;18.40;99.90
42099;DHT22;27758;55.900;8.516;2022-08-03T01:52:21;18.50;99.90
42099;DHT22;27758;55.900;8.516;2022-08-03T01:54:50;18.50;99.90
42099;DHT22;27758;55.900;8.516;2022-08-03T01:57:17;18.50;99.90
42099;DHT22;27758;55.900;8.516;2022-08-03T01:59:46;18.40;99.90
42099;DHT22;27758;55.900;8.516;2022-08-03T02:02:15;18.40;99.90
42099;DHT22;27758;55.900;8.516;2022-08-03T02:04:42;18.50;99.90
42099;DHT22;27758;55.900;8.516;2022-08-03T02:07:10;18.50;99.90
42099;DHT22;27758;55.900;8.516;2022-08-03T02:09:39;18.50;99.90
42099;DHT22;27758;55.900;8.516;2022-08-03T02:12:10;18.50;99.90
42099;DHT22;27758;55.900;8.516;2022-08-03T02:14:38;18.50;99.90
42099;DHT22;27758;55.900;8.516;2022-08-03T02:17:08;18.60;99.90
42099;DHT22;27758;55.900;8.516;2022-08-03T02:19:35;18.50;99.90
42099;DHT22;27758;55.900;8.516;2022-08-03T02:22:03;18.60;99.90
42099;DHT22;27758;55.900;8.516;2022-08-03T02:24:30;18.60;99.90
42099;DHT22;27758;55.900;8.516;2022-08-03T02:26:58;18.60;99.90
42099;DHT22;27758;55.900;8.516;2022-08-03T02:29:32;18.60;99.90
42099;DHT22;27758;55.900;8.516;2022-08-03T02:32:00;18.60;99.90
42099;DHT22;27758;55.900;8.516;2022-08-03T02:34:30;18.60;99.90
42099;DHT22;27758;55.900;8.516;2022-08-03T02:36:58;18.60;99.90
42099;DHT22;27758;55.900;8.516;2022-08-03T02:39:27;18.60;99.90
42099;DHT22;27758;55.900;8.516;2022-08-03T02:41:56;18.60;99.90
42099;DHT22;27758;55.900;8.516;2022-08-03T02:44:28;18.60;99.90
42099;DHT22;27758;55.900;8.516;2022-08-03T02:46:57;18.60;99.90
42099;DHT22;27758;55.900;8.516;2022-08-03T02:49:26;18.60;99.90
42099;DHT22;27758;55.900;8.516;2022-08-03T02:51:54;18.60;99.90
42099;DHT22;27758;55.900;8.516;2022-08-03T02:54:22;18.60;99.90
42099;DHT22;27758;55.900;8.516;2022-08-03T02:56:51;18.60;99.90
42099;DHT22;27758;55.900;8.516;2022-08-03T02:59:19;18.60;99.90
42099;DHT22;27758;55.900;8.516;2022-08-03T03:01:46;18.60;99.90
42099;DHT22;27758;55.900;8.516;2022-08-03T03:04:12;18.60;99.90
42099;DHT22;27758;55.900;8.516;2022-08-03T03:06:39;18.60;99.90
42099;DHT22;27758;55.900;8.516;2022-08-03T03:09:05;18.60;99.90
42099;DHT22;27758;55.900;8.516;2022-08-03T03:11:35;18.60;99.90
42099;DHT22;27758;55.900;8.516;2022-08-03T03:14:02;18.60;99.90
42099;DHT22;27758;55.900;8.516;2022-08-03T03:16:29;18.60;99.90
42099;DHT22;27758;55.900;8.516;2022-08-03T03:18:56;18.60;99.90
42099;DHT22;27758;55.900;8.516;2022-08-03T03:21:24;18.60;99.90
42099;DHT22;27758;55.900;8.516;2022-08-03T03:23:51;18.60;99.90
42099;DHT22;27758;55.900;8.516;2022-08-03T03:26:17;18.60;99.90
42099;DHT22;27758;55.900;8.516;2022-08-03T03:28:44;18.70;99.90
42099;DHT22;27758;55.900;8.516;2022-08-03T03:31:10;18.70;99.90
42099;DHT22;27758;55.900;8.516;2022-08-03T03:33:37;18.70;99.90
42099;DHT22;27758;55.900;8.516;2022-08-03T03:36:04;18.70;99.90
42099;DHT22;27758;55.900;8.516;2022-08-03T03:38:31;18.70;99.90
42099;DHT22;27758;55.900;8.516;2022-08-03T03:40:58;18.70;99.90
42099;DHT22;27758;55.900;8.516;2022-08-03T03:43:24;18.70;99.90
42099;DHT22;27758;55.900;8.516;2022-08-03T03:45:51;18.70;99.90
42099;DHT22;27758;55.900;8.516;2022-08-03T03:48:19;18.80;99.90
42099;DHT22;27758;55.900;8.516;2022-08-03T03:50:45;18.80;99.90
42099;DHT22;27758;55.900;8.516;2022-08-03T03:53:12;18.80;99.90
42099;DHT22;27758;55.900;8.516;2022-08-03T03:55:39;18.80;99.90
42099;DHT22;27758;55.900;8.516;2022-08-03T03:58:05;18.80;99.90
42099;DHT22;27758;55.900;8.516;2022-08-03T04:00:32;18.80;99.90
42099;DHT22;27758;55.900;8.516;2022-08-03T04:02:58;18.90;99.90
42099;DHT22;27758;55.900;8.516;2022-08-03T04:05:24;18.90;99.90
42099;DHT22;27758;55.900;8.516;2022-08-03T04:08:14;18.90;99.90
42099;DHT22;27758;55.900;8.516;2022-08-03T04:11:11;18.90;99.90
42099;DHT22;27758;55.900;8.516;2022-08-03T04:13:41;18.90;99.90
42099;DHT22;27758;55.900;8.516;2022-08-03T04:16:12;18.90;99.90
42099;DHT22;27758;55.900;8.516;2022-08-03T04:18:40;19.00;99.90
42099;DHT22;27758;55.900;8.516;2022-08-03T04:21:10;19.00;99.90
42099;DHT22;27758;55.900;8.516;2022-08-03T04:23:40;19.00;99.90
42099;DHT22;27758;55.900;8.516;2022-08-03T04:26:10;19.00;99.90
42099;DHT22;27758;55.900;8.516;2022-08-03T04:28:39;19.00;99.90
42099;DHT22;27758;55.900;8.516;2022-08-03T04:31:06;19.00;99.90
42099;DHT22;27758;55.900;8.516;2022-08-03T04:33:34;19.00;99.90
42099;DHT22;27758;55.900;8.516;2022-08-03T04:36:04;19.00;99.90
42099;DHT22;27758;55.900;8.516;2022-08-03T04:38:33;19.00;99.90
42099;DHT22;27758;55.900;8.516;2022-08-03T04:41:02;19.00;99.90
42099;DHT22;27758;55.900;8.516;2022-08-03T04:43:32;19.00;99.90
42099;DHT22;27758;55.900;8.516;2022-08-03T04:46:00;19.00;99.90
42099;DHT22;27758;55.900;8.516;2022-08-03T04:48:28;19.00;99.90
42099;DHT22;27758;55.900;8.516;2022-08-03T04:50:55;19.10;99.90
42099;DHT22;27758;55.900;8.516;2022-08-03T04:53:21;19.10;99.90
42099;DHT22;27758;55.900;8.516;2022-08-03T04:55:47;19.10;99.90
42099;DHT22;27758;55.900;8.516;2022-08-03T04:58:13;19.10;99.90
42099;DHT22;27758;55.900;8.516;2022-08-03T05:00:38;19.10;99.90
42099;DHT22;27758;55.900;8.516;2022-08-03T05:03:04;19.10;99.90
42099;DHT22;27758;55.900;8.516;2022-08-03T05:05:30;19.10;99.90
42099;DHT22;27758;55.900;8.516;2022-08-03T05:07:56;19.20;99.90
42099;DHT22;27758;55.900;8.516;2022-08-03T05:10:22;19.30;99.90
42099;DHT22;27758;55.900;8.516;2022-08-03T05:12:48;19.40;99.90
42099;DHT22;27758;55.900;8.516;2022-08-03T05:15:16;19.40;99.90
42099;DHT22;27758;55.900;8.516;2022-08-03T05:17:42;19.40;99.90
42099;DHT22;27758;55.900;8.516;2022-08-03T05:20:08;19.40;99.90
42099;DHT22;27758;55.900;8.516;2022-08-03T05:22:34;19.30;99.90
42099;DHT22;27758;55.900;8.516;2022-08-03T05:25:01;19.30;99.90
42099;DHT22;27758;55.900;8.516;2022-08-03T05:27:27;19.30;99.90
42099;DHT22;27758;55.900;8.516;2022-08-03T05:29:53;19.30;99.90
42099;DHT22;27758;55.900;8.516;2022-08-03T05:32:19;19.30;99.90
42099;DHT22;27758;55.900;8.516;2022-08-03T05:34:45;19.40;99.90
42099;DHT22;27758;55.900;8.516;2022-08-03T05:37:11;19.30;99.90
42099;DHT22;27758;55.900;8.516;2022-08-03T05:39:37;19.40;99.90
42099;DHT22;27758;55.900;8.516;2022-08-03T05:42:03;19.30;99.90
42099;DHT22;27758;55.900;8.516;2022-08-03T05:44:29;19.30;99.90
42099;DHT22;27758;55.900;8.516;2022-08-03T05:46:56;19.30;99.90
42099;DHT22;27758;55.900;8.516;2022-08-03T05:49:22;19.40;99.90
42099;DHT22;27758;55.900;8.516;2022-08-03T05:51:48;19.30;99.90
42099;DHT22;27758;55.900;8.516;2022-08-03T05:54:14;19.30;99.90
42099;DHT22;27758;55.900;8.516;2022-08-03T05:56:40;19.40;99.90
42099;DHT22;27758;55.900;8.516;2022-08-03T05:59:06;19.30;99.90
42099;DHT22;27758;55.900;8.516;2022-08-03T06:01:32;19.40;99.90
42099;DHT22;27758;55.900;8.516;2022-08-03T06:03:58;19.40;99.90
42099;DHT22;27758;55.900;8.516;2022-08-03T06:06:24;19.40;99.90
42099;DHT22;27758;55.900;8.516;2022-08-03T06:08:50;19.40;99.90
42099;DHT22;27758;55.900;8.516;2022-08-03T06:11:16;19.40;99.90
42099;DHT22;27758;55.900;8.516;2022-08-03T06:13:43;19.40;99.90
42099;DHT22;27758;55.900;8.516;2022-08-03T06:16:09;19.40;99.90
42099;DHT22;27758;55.900;8.516;2022-08-03T06:18:35;19.40;99.90
42099;DHT22;27758;55.900;8.516;2022-08-03T06:21:02;19.40;99.90
42099;DHT22;27758;55.900;8.516;2022-08-03T06:23:27;19.40;99.90
42099;DHT22;27758;55.900;8.516;2022-08-03T06:25:53;19.50;99.90
42099;DHT22;27758;55.900;8.516;2022-08-03T06:28:21;19.50;99.90
42099;DHT22;27758;55.900;8.516;2022-08-03T06:30:47;19.60;99.90
42099;DHT22;27758;55.900;8.516;2022-08-03T06:33:13;19.70;99.90
42099;DHT22;27758;55.900;8.516;2022-08-03T06:35:39;19.90;99.90
42099;DHT22;27758;55.900;8.516;2022-08-03T06:38:05;19.90;99.90
42099;DHT22;27758;55.900;8.516;2022-08-03T06:40:34;19.90;99.90
42099;DHT22;27758;55.900;8.516;2022-08-03T06:43:05;19.90;99.90
42099;DHT22;27758;55.900;8.516;2022-08-03T06:45:32;19.90;99.90
42099;DHT22;27758;55.900;8.516;2022-08-03T06:48:06;19.90;99.90
42099;DHT22;27758;55.900;8.516;2022-08-03T06:50:33;19.90;99.90
42099;DHT22;27758;55.900;8.516;2022-08-03T06:53:00;19.90;99.90
42099;DHT22;27758;55.900;8.516;2022-08-03T06:55:26;20.00;99.90
42099;DHT22;27758;55.900;8.516;2022-08-03T06:57:52;20.00;99.90
42099;DHT22;27758;55.900;8.516;2022-08-03T07:00:19;20.20;99.90
42099;DHT22;27758;55.900;8.516;2022-08-03T07:02:45;20.30;99.90
42099;DHT22;27758;55.900;8.516;2022-08-03T07:05:11;20.40;99.90
42099;DHT22;27758;55.900;8.516;2022-08-03T07:07:38;20.50;99.90
42099;DHT22;27758;55.900;8.516;2022-08-03T07:10:05;20.50;99.90
42099;DHT22;27758;55.900;8.516;2022-08-03T07:12:31;20.50;99.90
42099;DHT22;27758;55.900;8.516;2022-08-03T07:14:59;20.40;99.90
42099;DHT22;27758;55.900;8.516;2022-08-03T07:17:25;20.30;99.90
42099;DHT22;27758;55.900;8.516;2022-08-03T07:19:51;20.40;99.90
42099;DHT22;27758;55.900;8.516;2022-08-03T07:22:17;20.40;99.90
42099;DHT22;27758;55.900;8.516;2022-08-03T07:24:43;20.40;99.90
42099;DHT22;27758;55.900;8.516;2022-08-03T07:27:10;20.50;99.90
42099;DHT22;27758;55.900;8.516;2022-08-03T07:29:36;20.50;99.90
42099;DHT22;27758;55.900;8.516;2022-08-03T07:32:03;20.80;99.90
42099;DHT22;27758;55.900;8.516;2022-08-03T07:34:30;21.00;99.90
42099;DHT22;27758;55.900;8.516;2022-08-03T07:36:56;21.30;99.90
42099;DHT22;27758;55.900;8.516;2022-08-03T07:39:23;21.60;99.90
42099;DHT22;27758;55.900;8.516;2022-08-03T07:41:49;21.90;99.90
42099;DHT22;27758;55.900;8.516;2022-08-03T07:44:17;21.80;99.90
42099;DHT22;27758;55.900;8.516;2022-08-03T07:46:43;21.60;99.90
42099;DHT22;27758;55.900;8.516;2022-08-03T07:49:08;21.40;99.90
42099;DHT22;27758;55.900;8.516;2022-08-03T07:51:34;21.40;99.90
42099;DHT22;27758;55.900;8.516;2022-08-03T07:54:00;21.30;99.90
42099;DHT22;27758;55.900;8.516;2022-08-03T07:56:27;21.40;99.90
42099;DHT22;27758;55.900;8.516;2022-08-03T07:58:53;21.50;99.90
42099;DHT22;27758;55.900;8.516;2022-08-03T08:01:20;21.60;99.90
42099;DHT22;27758;55.900;8.516;2022-08-03T08:03:46;21.50;99.90
42099;DHT22;27758;55.900;8.516;2022-08-03T08:06:12;21.30;99.90
42099;DHT22;27758;55.900;8.516;2022-08-03T08:08:38;21.20;99.90
42099;DHT22;27758;55.900;8.516;2022-08-03T08:11:05;21.10;99.90
42099;DHT22;27758;55.900;8.516;2022-08-03T08:13:31;21.00;99.90
42099;DHT22;27758;55.900;8.516;2022-08-03T08:15:57;21.00;99.90
42099;DHT22;27758;55.900;8.516;2022-08-03T08:18:23;21.00;99.90
42099;DHT22;27758;55.900;8.516;2022-08-03T08:20:49;20.80;99.90
42099;DHT22;27758;55.900;8.516;2022-08-03T08:23:15;20.80;99.90
42099;DHT22;27758;55.900;8.516;2022-08-03T08:25:49;20.80;99.90
42099;DHT22;27758;55.900;8.516;2022-08-03T08:28:19;20.80;99.90
42099;DHT22;27758;55.900;8.516;2022-08-03T08:30:45;20.70;99.90
42099;DHT22;27758;55.900;8.516;2022-08-03T08:33:12;20.60;99.90
42099;DHT22;27758;55.900;8.516;2022-08-03T08:35:38;20.70;99.90
42099;DHT22;27758;55.900;8.516;2022-08-03T08:38:03;20.70;99.90
42099;DHT22;27758;55.900;8.516;2022-08-03T08:40:29;20.70;99.90
42099;DHT22;27758;55.900;8.516;2022-08-03T08:42:56;20.90;99.90
42099;DHT22;27758;55.900;8.516;2022-08-03T08:45:22;20.90;99.90
42099;DHT22;27758;55.900;8.516;2022-08-03T08:47:48;21.10;99.90
42099;DHT22;27758;55.900;8.516;2022-08-03T08:50:19;21.50;99.90
42099;DHT22;27758;55.900;8.516;2022-08-03T08:52:48;21.80;99.90
42099;DHT22;27758;55.900;8.516;2022-08-03T08:55:19;22.30;99.90
42099;DHT22;27758;55.900;8.516;2022-08-03T08:57:51;22.70;99.90
42099;DHT22;27758;55.900;8.516;2022-08-03T09:00:17;22.70;99.90
42099;DHT22;27758;55.900;8.516;2022-08-03T09:02:44;22.80;99.90
42099;DHT22;27758;55.900;8.516;2022-08-03T09:05:16;22.80;99.90
42099;DHT22;27758;55.900;8.516;2022-08-03T09:07:44;22.80;99.90
42099;DHT22;27758;55.900;8.516;2022-08-03T09:10:11;22.80;99.90
42099;DHT22;27758;55.900;8.516;2022-08-03T09:12:45;22.80;99.90
42099;DHT22;27758;55.900;8.516;2022-08-03T09:15:28;22.90;99.90
42099;DHT22;27758;55.900;8.516;2022-08-03T09:17:57;22.80;99.90
42099;DHT22;27758;55.900;8.516;2022-08-03T09:20:25;22.90;99.90
42099;DHT22;27758;55.900;8.516;2022-08-03T09:22:56;23.10;99.90
42099;DHT22;27758;55.900;8.516;2022-08-03T09:25:35;23.20;99.90
42099;DHT22;27758;55.900;8.516;2022-08-03T09:28:09;23.50;99.90
42099;DHT22;27758;55.900;8.516;2022-08-03T09:30:37;23.50;99.90
42099;DHT22;27758;55.900;8.516;2022-08-03T09:33:05;23.70;99.90
42099;DHT22;27758;55.900;8.516;2022-08-03T09:35:33;24.00;99.90
42099;DHT22;27758;55.900;8.516;2022-08-03T09:40:41;23.80;99.90
42099;DHT22;27758;55.900;8.516;2022-08-03T09:43:07;23.60;99.90
42099;DHT22;27758;55.900;8.516;2022-08-03T09:45:37;23.70;99.90
42099;DHT22;27758;55.900;8.516;2022-08-03T09:48:23;23.70;99.90
42099;DHT22;27758;55.900;8.516;2022-08-03T09:50:53;23.60;99.90
42099;DHT22;27758;55.900;8.516;2022-08-03T09:53:19;23.60;99.90
42099;DHT22;27758;55.900;8.516;2022-08-03T09:58:15;23.50;99.90
42099;DHT22;27758;55.900;8.516;2022-08-03T10:03:19;23.70;99.90
42099;DHT22;27758;55.900;8.516;2022-08-03T10:05:45;23.60;99.90
42099;DHT22;27758;55.900;8.516;2022-08-03T10:08:15;23.70;99.90
42099;DHT22;27758;55.900;8.516;2022-08-03T10:10:43;23.90;99.90
42099;DHT22;27758;55.900;8.516;2022-08-03T10:13:13;24.30;99.90
42099;DHT22;27758;55.900;8.516;2022-08-03T10:15:39;24.60;99.90
42099;DHT22;27758;55.900;8.516;2022-08-03T10:18:06;24.70;99.90
42099;DHT22;27758;55.900;8.516;2022-08-03T10:20:36;25.00;99.90
42099;DHT22;27758;55.900;8.516;2022-08-03T10:23:04;25.00;99.90
42099;DHT22;27758;55.900;8.516;2022-08-03T10:25:30;25.10;99.90
42099;DHT22;27758;55.900;8.516;2022-08-03T10:28:01;24.80;99.90
42099;DHT22;27758;55.900;8.516;2022-08-03T10:30:31;24.70;99.90
42099;DHT22;27758;55.900;8.516;2022-08-03T10:33:14;24.50;99.90
42099;DHT22;27758;55.900;8.516;2022-08-03T10:35:42;24.10;99.90
42099;DHT22;27758;55.900;8.516;2022-08-03T10:38:17;24.00;99.90
42099;DHT22;27758;55.900;8.516;2022-08-03T10:40:43;24.10;99.90
42099;DHT22;27758;55.900;8.516;2022-08-03T10:43:19;24.00;99.90
42099;DHT22;27758;55.900;8.516;2022-08-03T10:45:45;24.10;99.90
42099;DHT22;27758;55.900;8.516;2022-08-03T10:48:12;23.90;99.90
42099;DHT22;27758;55.900;8.516;2022-08-03T10:50:38;24.00;99.90
42099;DHT22;27758;55.900;8.516;2022-08-03T10:53:07;24.00;99.90
42099;DHT22;27758;55.900;8.516;2022-08-03T10:55:37;23.90;99.90
42099;DHT22;27758;55.900;8.516;2022-08-03T11:01:07;23.80;99.90
42099;DHT22;27758;55.900;8.516;2022-08-03T11:04:13;23.90;99.90
42099;DHT22;27758;55.900;8.516;2022-08-03T11:06:21;23.90;99.90
42099;DHT22;27758;55.900;8.516;2022-08-03T11:08:50;23.70;99.90
42099;DHT22;27758;55.900;8.516;2022-08-03T11:11:36;23.60;99.90
42099;DHT22;27758;55.900;8.516;2022-08-03T11:14:14;23.60;99.90
42099;DHT22;27758;55.900;8.516;2022-08-03T11:16:49;23.40;99.90
42099;DHT22;27758;55.900;8.516;2022-08-03T11:19:16;23.20;99.90
42099;DHT22;27758;55.900;8.516;2022-08-03T11:27:19;22.40;99.90
42099;DHT22;27758;55.900;8.516;2022-08-03T11:35:25;22.40;99.90
42099;DHT22;27758;55.900;8.516;2022-08-03T11:46:06;22.30;99.90
42099;DHT22;27758;55.900;8.516;2022-08-03T11:51:02;22.30;99.90
42099;DHT22;27758;55.900;8.516;2022-08-03T11:53:30;22.30;99.90
42099;DHT22;27758;55.900;8.516;2022-08-03T11:55:58;22.20;99.90
42099;DHT22;27758;55.900;8.516;2022-08-03T11:58:25;22.10;99.90
42099;DHT22;27758;55.900;8.516;2022-08-03T12:00:51;22.20;99.90
42099;DHT22;27758;55.900;8.516;2022-08-03T12:03:19;22.10;99.90
42099;DHT22;27758;55.900;8.516;2022-08-03T12:05:52;22.10;99.90
42099;DHT22;27758;55.900;8.516;2022-08-03T12:08:29;22.00;99.90
42099;DHT22;27758;55.900;8.516;2022-08-03T12:10:56;22.00;99.90
42099;DHT22;27758;55.900;8.516;2022-08-03T12:13:23;22.00;99.90
42099;DHT22;27758;55.900;8.516;2022-08-03T12:15:55;21.80;99.90
42099;DHT22;27758;55.900;8.516;2022-08-03T12:18:22;21.90;99.90
42099;DHT22;27758;55.900;8.516;2022-08-03T12:20:49;21.90;99.90
42099;DHT22;27758;55.900;8.516;2022-08-03T12:23:16;22.00;99.90
42099;DHT22;27758;55.900;8.516;2022-08-03T12:25:43;22.00;99.90
42099;DHT22;27758;55.900;8.516;2022-08-03T12:28:13;21.90;99.90
42099;DHT22;27758;55.900;8.516;2022-08-03T12:30:42;21.80;99.90
42099;DHT22;27758;55.900;8.516;2022-08-03T12:33:15;21.70;99.90
42099;DHT22;27758;55.900;8.516;2022-08-03T12:35:42;21.80;99.90
42099;DHT22;27758;55.900;8.516;2022-08-03T12:38:09;21.80;99.90
42099;DHT22;27758;55.900;8.516;2022-08-03T12:40:36;21.90;99.90
42099;DHT22;27758;55.900;8.516;2022-08-03T12:43:12;22.10;99.90
42099;DHT22;27758;55.900;8.516;2022-08-03T12:45:39;22.10;99.90
42099;DHT22;27758;55.900;8.516;2022-08-03T12:48:08;22.20;99.90
42099;DHT22;27758;55.900;8.516;2022-08-03T12:50:35;22.40;99.90
42099;DHT22;27758;55.900;8.516;2022-08-03T12:53:05;22.40;99.90
42099;DHT22;27758;55.900;8.516;2022-08-03T12:55:32;22.30;99.90
42099;DHT22;27758;55.900;8.516;2022-08-03T12:58:05;22.20;99.90
42099;DHT22;27758;55.900;8.516;2022-08-03T13:00:31;22.00;99.90
42099;DHT22;27758;55.900;8.516;2022-08-03T13:05:27;21.80;99.90
42099;DHT22;27758;55.900;8.516;2022-08-03T13:07:53;21.80;99.90
42099;DHT22;27758;55.900;8.516;2022-08-03T13:10:32;21.80;99.90
42099;DHT22;27758;55.900;8.516;2022-08-03T13:12:58;21.90;99.90
42099;DHT22;27758;55.900;8.516;2022-08-03T13:15:26;21.80;99.90
42099;DHT22;27758;55.900;8.516;2022-08-03T13:17:55;21.70;99.90
42099;DHT22;27758;55.900;8.516;2022-08-03T13:20:21;21.70;99.90
42099;DHT22;27758;55.900;8.516;2022-08-03T13:22:48;21.60;99.90
42099;DHT22;27758;55.900;8.516;2022-08-03T13:25:14;21.60;99.90
42099;DHT22;27758;55.900;8.516;2022-08-03T13:27:40;21.50;99.90
42099;DHT22;27758;55.900;8.516;2022-08-03T13:30:07;21.50;99.90
42099;DHT22;27758;55.900;8.516;2022-08-03T13:32:33;21.40;99.90
42099;DHT22;27758;55.900;8.516;2022-08-03T13:34:59;21.30;99.90
42099;DHT22;27758;55.900;8.516;2022-08-03T13:37:27;21.30;99.90
42099;DHT22;27758;55.900;8.516;2022-08-03T13:39:53;21.30;99.90
42099;DHT22;27758;55.900;8.516;2022-08-03T13:42:19;21.30;99.90
42099;DHT22;27758;55.900;8.516;2022-08-03T13:44:45;21.30;99.90
42099;DHT22;27758;55.900;8.516;2022-08-03T13:47:11;21.30;99.90
42099;DHT22;27758;55.900;8.516;2022-08-03T13:49:37;21.20;99.90
42099;DHT22;27758;55.900;8.516;2022-08-03T13:52:03;21.20;99.90
42099;DHT22;27758;55.900;8.516;2022-08-03T13:54:29;21.30;99.90
42099;DHT22;27758;55.900;8.516;2022-08-03T13:56:55;21.30;99.90
42099;DHT22;27758;55.900;8.516;2022-08-03T13:59:22;21.40;99.90
42099;DHT22;27758;55.900;8.516;2022-08-03T14:01:50;21.50;99.90
42099;DHT22;27758;55.900;8.516;2022-08-03T14:04:16;21.60;99.90
42099;DHT22;27758;55.900;8.516;2022-08-03T14:06:41;21.70;99.90
42099;DHT22;27758;55.900;8.516;2022-08-03T14:09:10;21.80;99.90
42099;DHT22;27758;55.900;8.516;2022-08-03T14:11:36;21.70;99.90
42099;DHT22;27758;55.900;8.516;2022-08-03T14:14:04;21.80;99.90
42099;DHT22;27758;55.900;8.516;2022-08-03T14:16:30;21.80;99.90
42099;DHT22;27758;55.900;8.516;2022-08-03T14:18:55;21.70;99.90
42099;DHT22;27758;55.900;8.516;2022-08-03T14:21:21;21.80;99.90
42099;DHT22;27758;55.900;8.516;2022-08-03T14:23:47;21.70;99.90
42099;DHT22;27758;55.900;8.516;2022-08-03T14:26:13;21.70;99.90
42099;DHT22;27758;55.900;8.516;2022-08-03T14:28:39;21.70;99.90
42099;DHT22;27758;55.900;8.516;2022-08-03T14:31:06;21.70;99.90
42099;DHT22;27758;55.900;8.516;2022-08-03T14:33:32;21.60;99.90
42099;DHT22;27758;55.900;8.516;2022-08-03T14:35:58;21.50;99.90
42099;DHT22;27758;55.900;8.516;2022-08-03T14:38:24;21.50;99.90
42099;DHT22;27758;55.900;8.516;2022-08-03T14:40:50;21.50;99.90
42099;DHT22;27758;55.900;8.516;2022-08-03T14:43:16;21.50;99.90
42099;DHT22;27758;55.900;8.516;2022-08-03T14:45:42;21.50;99.90
42099;DHT22;27758;55.900;8.516;2022-08-03T14:48:08;21.40;99.90
42099;DHT22;27758;55.900;8.516;2022-08-03T14:50:34;21.50;99.90
42099;DHT22;27758;55.900;8.516;2022-08-03T14:53:00;21.40;99.90
42099;DHT22;27758;55.900;8.516;2022-08-03T14:55:26;21.40;99.90
42099;DHT22;27758;55.900;8.516;2022-08-03T14:57:52;21.30;99.90
42099;DHT22;27758;55.900;8.516;2022-08-03T15:00:18;21.30;99.90
42099;DHT22;27758;55.900;8.516;2022-08-03T15:02:44;21.30;99.90
42099;DHT22;27758;55.900;8.516;2022-08-03T15:05:10;21.20;99.90
42099;DHT22;27758;55.900;8.516;2022-08-03T15:07:37;21.20;99.90
42099;DHT22;27758;55.900;8.516;2022-08-03T15:10:04;21.30;99.90
42099;DHT22;27758;55.900;8.516;2022-08-03T15:12:30;21.20;99.90
42099;DHT22;27758;55.900;8.516;2022-08-03T15:14:57;21.20;99.90
42099;DHT22;27758;55.900;8.516;2022-08-03T15:17:23;21.20;99.90
42099;DHT22;27758;55.900;8.516;2022-08-03T15:19:48;21.30;99.90
42099;DHT22;27758;55.900;8.516;2022-08-03T15:22:14;21.30;99.90
42099;DHT22;27758;55.900;8.516;2022-08-03T15:24:41;21.40;99.90
42099;DHT22;27758;55.900;8.516;2022-08-03T15:27:07;21.30;99.90
42099;DHT22;27758;55.900;8.516;2022-08-03T15:29:34;21.40;99.90
42099;DHT22;27758;55.900;8.516;2022-08-03T15:32:00;21.60;99.90
42099;DHT22;27758;55.900;8.516;2022-08-03T15:34:25;21.70;99.90
42099;DHT22;27758;55.900;8.516;2022-08-03T15:36:51;21.90;99.90
42099;DHT22;27758;55.900;8.516;2022-08-03T15:39:17;21.90;99.90
42099;DHT22;27758;55.900;8.516;2022-08-03T15:41:43;21.70;99.90
42099;DHT22;27758;55.900;8.516;2022-08-03T15:44:09;21.70;99.90
42099;DHT22;27758;55.900;8.516;2022-08-03T15:46:35;21.60;99.90
42099;DHT22;27758;55.900;8.516;2022-08-03T15:49:01;21.60;99.90
42099;DHT22;27758;55.900;8.516;2022-08-03T15:51:30;21.50;99.90
42099;DHT22;27758;55.900;8.516;2022-08-03T15:53:56;21.50;99.90
42099;DHT22;27758;55.900;8.516;2022-08-03T15:56:22;21.40;99.90
42099;DHT22;27758;55.900;8.516;2022-08-03T15:58:48;21.30;99.90
42099;DHT22;27758;55.900;8.516;2022-08-03T16:01:14;21.30;99.90
42099;DHT22;27758;55.900;8.516;2022-08-03T16:03:40;21.30;99.90
42099;DHT22;27758;55.900;8.516;2022-08-03T16:06:06;21.30;99.90
42099;DHT22;27758;55.900;8.516;2022-08-03T16:08:33;21.20;99.90
42099;DHT22;27758;55.900;8.516;2022-08-03T16:10:59;21.20;99.90
42099;DHT22;27758;55.900;8.516;2022-08-03T16:13:26;21.10;99.90
42099;DHT22;27758;55.900;8.516;2022-08-03T16:15:52;21.00;99.90
42099;DHT22;27758;55.900;8.516;2022-08-03T16:18:19;20.90;99.90
42099;DHT22;27758;55.900;8.516;2022-08-03T16:20:45;20.90;99.90